| Date | Time | Temp. (oF) | Dew Point (oF) | Rel. Hum. (%) | Press. (in.) | Wind Dir. | Wind Speed (mph) | Hourly Rainfall (in.) |
|
|---|---|---|---|---|---|---|---|---|---|
| 1 | 11/12 | 00:00 | 27 | 21 | 81 | 30.40 | W | 0 | 0.00 |
| 2 | 11/11 | 23:00 | 29 | 22 | 77 | 30.39 | W | 0 | 0.00 |
| 3 | 11/11 | 22:00 | 33 | 21 | 62 | 30.37 | WNW | 1 | 0.00 |
| 4 | 11/11 | 21:00 | 35 | 22 | 60 | 30.35 | WNW | 2 | 0.00 |
| 5 | 11/11 | 20:00 | 39 | 21 | 49 | 30.33 | NNW | 1 | 0.00 |
| 6 | 11/11 | 19:00 | 40 | 21 | 47 | 30.31 | NNW | 4 | 0.00 |
| 7 | 11/11 | 18:00 | 42 | 22 | 46 | 30.29 | NNW | 2 | 0.00 |
| 8 | 11/11 | 17:00 | 45 | 23 | 42 | 30.26 | N | 4 | 0.00 |
| 9 | 11/11 | 16:00 | 47 | 22 | 38 | 30.22 | NNW | 7 | 0.00 |
| 10 | 11/11 | 15:00 | 48 | 23 | 38 | 30.20 | NNW | 9 | 0.00 |
| 11 | 11/11 | 14:00 | 48 | 23 | 38 | 30.20 | NW | 6 | 0.00 |
| 12 | 11/11 | 13:00 | 47 | 23 | 40 | 30.21 | NW | 9 | 0.00 |
| 13 | 11/11 | 12:00 | 47 | 26 | 45 | 30.21 | NW | 8 | 0.00 |
| 14 | 11/11 | 11:00 | 44 | 26 | 51 | 30.23 | WNW | 10 | 0.00 |
| 15 | 11/11 | 10:00 | 44 | 26 | 51 | 30.23 | NNW | 15 | 0.00 |
| 16 | 11/11 | 09:00 | 44 | 29 | 56 | 30.20 | NNW | 11 | 0.00 |
| 17 | 11/11 | 08:00 | 44 | 32 | 63 | 30.15 | NW | 8 | 0.00 |
| 18 | 11/11 | 07:00 | 45 | 33 | 63 | 30.10 | N | 9 | 0.00 |
| 19 | 11/11 | 06:00 | 49 | 35 | 59 | 30.04 | NNW | 16 | 0.00 |
| 20 | 11/11 | 05:00 | 49 | 34 | 58 | 30.00 | NNW | 6 | 0.00 |
| 21 | 11/11 | 04:00 | 49 | 34 | 58 | 29.96 | WSW | 5 | 0.00 |
| 22 | 11/11 | 03:00 | 49 | 35 | 59 | 29.93 | WSW | 5 | 0.00 |
| 23 | 11/11 | 02:00 | 50 | 34 | 55 | 29.92 | W | 2 | 0.00 |
| 24 | 11/11 | 01:00 | 52 | 34 | 51 | 29.90 | WNW | 7 | 0.00 |